createdAt,value
2022-12-19T00:02:07.449Z,75.20
2022-12-19T00:06:06.528Z,75.33
2022-12-19T00:10:06.348Z,75.08
2022-12-19T00:14:05.987Z,75.06
2022-12-19T00:18:18.711Z,74.94
2022-12-19T00:22:18.085Z,75.31
2022-12-19T00:26:22.927Z,75.19
2022-12-19T00:30:22.194Z,75.58
2022-12-19T00:34:22.498Z,75.80
2022-12-19T00:38:21.330Z,75.97
2022-12-19T00:42:20.875Z,76.26
2022-12-19T00:46:21.452Z,76.71
2022-12-19T00:50:20.608Z,76.52
2022-12-19T00:54:20.047Z,76.74
2022-12-19T00:58:22.346Z,76.88
2022-12-19T01:01:57.802Z,76.80
2022-12-19T01:05:57.026Z,77.02
2022-12-19T01:09:56.299Z,77.11
2022-12-19T01:13:55.588Z,77.38
2022-12-19T01:17:56.375Z,77.72
2022-12-19T01:21:32.487Z,77.80
2022-12-19T01:25:35.199Z,77.87
2022-12-19T01:29:36.675Z,77.93
2022-12-19T01:33:42.234Z,78.00
2022-12-19T01:37:43.575Z,78.12
2022-12-19T01:41:42.482Z,78.24
2022-12-19T01:45:45.905Z,78.19
2022-12-19T01:49:45.522Z,78.24
2022-12-19T01:53:49.780Z,78.31
2022-12-19T01:57:49.509Z,78.27
2022-12-19T02:01:51.611Z,78.26
2022-12-19T02:05:54.641Z,78.19
2022-12-19T02:09:57.395Z,78.00
2022-12-19T02:14:02.365Z,77.86
2022-12-19T02:18:04.616Z,77.76
2022-12-19T02:22:21.973Z,77.56
2022-12-19T02:26:46.698Z,77.45
2022-12-19T02:31:05.381Z,77.51
2022-12-19T02:35:52.807Z,77.67
2022-12-19T02:39:12.432Z,77.75
2022-12-19T02:43:13.139Z,77.76
2022-12-19T02:47:14.821Z,77.78
2022-12-19T02:51:14.316Z,77.81
2022-12-19T02:55:30.648Z,77.83
2022-12-19T02:59:49.839Z,77.83
2022-12-19T03:03:53.754Z,77.90
2022-12-19T03:08:02.041Z,77.96
2022-12-19T03:12:14.087Z,78.07
2022-12-19T03:16:16.274Z,78.21
2022-12-19T03:20:53.768Z,78.27
2022-12-19T03:23:54.963Z,78.19
2022-12-19T03:28:11.877Z,78.68
2022-12-19T03:32:12.640Z,78.74
2022-12-19T03:36:16.181Z,79.19
2022-12-19T03:40:20.453Z,79.20
2022-12-19T03:43:53.437Z,79.22
2022-12-19T03:47:57.700Z,79.68
2022-12-19T03:52:15.380Z,79.58
2022-12-19T03:56:31.425Z,79.59
2022-12-19T04:00:34.701Z,79.74
2022-12-19T04:04:36.486Z,79.77
2022-12-19T04:08:36.324Z,80.09
2022-12-19T04:12:39.144Z,80.16
2022-12-19T04:16:51.608Z,80.03
2022-12-19T04:21:17.969Z,80.16
2022-12-19T04:24:32.779Z,80.20
2022-12-19T04:28:36.770Z,80.09
2022-12-19T04:32:36.565Z,80.30
2022-12-19T04:36:35.597Z,80.17
2022-12-19T04:40:40.889Z,80.12
2022-12-19T04:44:40.934Z,80.15
2022-12-19T04:48:39.845Z,80.27
2022-12-19T04:52:58.097Z,80.46
2022-12-19T04:56:16.917Z,80.71
2022-12-19T05:00:17.710Z,80.92
2022-12-19T05:04:16.588Z,81.16
2022-12-19T05:08:15.975Z,81.12
2022-12-19T05:12:15.748Z,81.06
2022-12-19T05:16:16.154Z,81.03
2022-12-19T05:20:15.367Z,81.23
2022-12-19T05:24:18.035Z,81.18
2022-12-19T05:27:51.923Z,81.21
2022-12-19T05:31:50.877Z,81.50
2022-12-19T05:35:49.949Z,81.40
2022-12-19T05:39:48.937Z,81.44
2022-12-19T05:43:52.276Z,81.60
2022-12-19T05:47:51.362Z,81.60
2022-12-19T05:51:50.292Z,81.65
2022-12-19T05:55:49.075Z,82.15
2022-12-19T05:59:48.075Z,82.28
2022-12-19T06:03:47.438Z,81.48
2022-12-19T06:07:48.126Z,81.38
2022-12-19T06:11:26.386Z,81.81
2022-12-19T06:15:30.119Z,82.04
2022-12-19T06:19:07.428Z,82.27
2022-12-19T06:27:56.478Z,81.98
2022-12-19T06:31:56.010Z,81.81
2022-12-19T06:36:02.782Z,81.92
2022-12-19T06:40:01.875Z,81.84
2022-12-19T06:44:01.858Z,81.38
2022-12-19T06:48:01.369Z,81.47
2022-12-19T06:52:08.911Z,81.25
2022-12-19T06:55:38.639Z,81.42
2022-12-19T06:59:38.192Z,81.65
2022-12-19T07:03:40.456Z,81.60
2022-12-19T07:07:53.819Z,80.99
2022-12-19T07:11:53.032Z,81.03
2022-12-19T07:15:52.841Z,80.96
2022-12-19T07:19:54.418Z,81.06
2022-12-19T07:23:55.656Z,80.92
2022-12-19T07:27:35.602Z,81.22
2022-12-19T07:31:35.372Z,81.24
2022-12-19T07:35:34.819Z,81.29
2022-12-19T07:39:33.991Z,81.20
2022-12-19T07:43:33.305Z,81.17
2022-12-19T07:47:33.857Z,81.16
2022-12-19T07:51:34.010Z,81.36
2022-12-19T07:55:33.751Z,81.00
2022-12-19T07:59:38.789Z,81.08
2022-12-19T08:03:38.993Z,80.83
2022-12-19T08:07:38.753Z,80.91
2022-12-19T08:11:38.419Z,80.64
2022-12-19T08:15:38.596Z,80.22
2022-12-19T08:19:38.487Z,80.15
2022-12-19T08:23:40.995Z,80.11
2022-12-19T08:27:41.575Z,79.94
2022-12-19T08:31:42.163Z,79.65
2022-12-19T08:35:41.527Z,79.79
2022-12-19T08:39:41.587Z,79.43
2022-12-19T08:43:42.188Z,79.38
2022-12-19T08:47:41.992Z,79.29
2022-12-19T08:51:41.827Z,79.15
2022-12-19T08:55:41.377Z,79.05
2022-12-19T08:59:41.166Z,78.61
2022-12-19T09:03:50.205Z,78.44
2022-12-19T09:08:01.980Z,77.92
2022-12-19T09:12:01.201Z,77.63
2022-12-19T09:16:05.016Z,77.55
2022-12-19T09:20:05.370Z,77.36
2022-12-19T09:24:07.963Z,76.63
2022-12-19T09:32:27.089Z,76.59
2022-12-19T09:36:26.422Z,76.10
2022-12-19T09:40:27.741Z,75.50
2022-12-19T09:44:37.012Z,74.94
2022-12-19T09:48:36.749Z,75.30
2022-12-19T09:52:37.603Z,75.06
2022-12-19T09:56:45.908Z,75.08
2022-12-19T10:00:56.018Z,75.34
2022-12-19T10:05:59.748Z,74.52
2022-12-19T10:11:16.321Z,74.93
2022-12-19T10:14:31.728Z,74.95
2022-12-19T10:18:32.530Z,74.82
2022-12-19T10:22:50.901Z,74.56
2022-12-19T10:26:55.057Z,75.08
2022-12-19T10:30:58.235Z,74.81
2022-12-19T10:34:58.625Z,75.03
2022-12-19T10:39:09.197Z,74.66
2022-12-19T10:43:22.918Z,74.94
2022-12-19T10:47:30.381Z,75.18
2022-12-19T10:51:12.124Z,75.03
2022-12-19T10:55:30.593Z,74.66
2022-12-19T10:59:30.284Z,74.82
2022-12-19T11:03:29.726Z,74.91
2022-12-19T11:07:29.455Z,74.85
2022-12-19T11:14:27.454Z,74.98
2022-12-19T11:21:55.196Z,74.41
2022-12-19T11:29:39.757Z,74.39
2022-12-19T11:30:48.178Z,74.84
2022-12-19T11:33:53.584Z,74.80
2022-12-19T11:37:56.005Z,74.83
2022-12-19T11:42:02.445Z,74.50
2022-12-19T11:46:22.227Z,74.72
2022-12-19T11:50:24.923Z,74.87
2022-12-19T11:54:24.382Z,75.08
2022-12-19T11:58:25.419Z,74.98
2022-12-19T12:02:50.645Z,75.26
2022-12-19T12:06:52.264Z,75.13
2022-12-19T12:17:41.910Z,75.07
2022-12-19T12:19:41.035Z,74.96
2022-12-19T12:24:58.859Z,75.05
2022-12-19T12:31:46.586Z,75.44
2022-12-19T12:31:56.043Z,75.35
2022-12-19T12:35:16.313Z,75.45
2022-12-19T12:42:04.113Z,75.55
2022-12-19T12:46:04.853Z,75.36
2022-12-19T12:50:06.727Z,75.46
2022-12-19T12:54:08.023Z,75.66
2022-12-19T12:58:40.439Z,75.56
2022-12-19T13:02:40.500Z,75.39
2022-12-19T13:06:41.219Z,75.28
2022-12-19T13:11:04.329Z,75.27
2022-12-19T13:14:40.961Z,75.41
2022-12-19T13:18:41.260Z,75.37
2022-12-19T13:22:41.898Z,75.51
2022-12-19T13:26:46.738Z,75.44
2022-12-19T13:31:21.000Z,75.49
2022-12-19T13:36:31.800Z,75.59
2022-12-19T13:39:55.161Z,75.67
2022-12-19T13:44:02.533Z,75.75
2022-12-19T13:48:03.525Z,75.88
2022-12-19T13:52:05.351Z,76.02
2022-12-19T13:56:06.987Z,75.84
2022-12-19T14:00:29.989Z,75.46
2022-12-19T14:04:31.147Z,75.30
2022-12-19T14:08:30.267Z,75.31
2022-12-19T14:13:40.097Z,75.40
2022-12-19T14:17:13.445Z,75.27
2022-12-19T14:22:11.105Z,75.18
2022-12-19T14:28:21.635Z,75.11
2022-12-19T14:30:27.770Z,75.10
2022-12-19T14:39:24.521Z,75.05
2022-12-19T14:43:59.031Z,75.15
2022-12-19T14:54:18.066Z,75.16
2022-12-19T14:54:33.731Z,75.14
2022-12-19T14:56:14.160Z,75.08
2022-12-19T15:01:07.515Z,75.02
2022-12-19T15:04:51.083Z,75.07
2022-12-19T15:11:00.685Z,74.86
2022-12-19T15:14:53.928Z,74.74
2022-12-19T15:17:21.696Z,74.69
2022-12-19T15:21:21.220Z,74.80
2022-12-19T15:26:02.677Z,74.88
2022-12-19T15:29:54.535Z,74.87
2022-12-19T15:34:32.245Z,74.89
2022-12-19T15:38:13.117Z,74.96
2022-12-19T15:42:20.948Z,75.02
2022-12-19T15:46:20.959Z,75.09
2022-12-19T15:50:22.506Z,75.06
2022-12-19T15:54:47.599Z,75.13
2022-12-19T16:09:23.305Z,75.01
2022-12-19T16:12:26.887Z,74.81
2022-12-19T16:16:26.791Z,74.52
2022-12-19T16:20:27.750Z,74.67
2022-12-19T16:24:26.683Z,74.50
2022-12-19T16:28:28.703Z,74.50
2022-12-19T16:32:29.181Z,74.70
2022-12-19T16:36:28.011Z,74.82
2022-12-19T16:40:40.709Z,74.91
2022-12-19T16:49:49.312Z,75.52
2022-12-19T16:54:09.233Z,75.49
2022-12-19T16:57:26.692Z,75.56
2022-12-19T17:01:39.945Z,75.72
2022-12-19T17:05:39.176Z,75.71
2022-12-19T17:09:38.935Z,75.70
2022-12-19T17:13:38.211Z,75.68
2022-12-19T17:17:37.618Z,75.72
2022-12-19T17:21:37.249Z,75.65
2022-12-19T17:25:38.949Z,75.64
2022-12-19T17:29:38.504Z,75.72
2022-12-19T17:33:39.889Z,75.61
2022-12-19T17:37:39.194Z,75.68
2022-12-19T17:41:38.417Z,75.70
2022-12-19T17:45:38.528Z,75.76
2022-12-19T17:49:38.712Z,75.78
2022-12-19T17:53:37.920Z,75.93
2022-12-19T17:57:51.867Z,76.25
2022-12-19T18:01:29.810Z,76.33
2022-12-19T18:05:32.179Z,76.44
2022-12-19T18:09:31.641Z,76.63
2022-12-19T18:13:31.546Z,76.86
2022-12-19T18:17:31.408Z,76.92
2022-12-19T18:21:30.700Z,77.18
2022-12-19T18:29:45.219Z,77.12
2022-12-19T18:33:47.199Z,77.26
2022-12-19T18:37:47.146Z,76.96
2022-12-19T18:41:46.292Z,77.10
2022-12-19T18:45:47.714Z,77.36
2022-12-19T18:50:01.189Z,77.42
2022-12-19T18:54:01.092Z,77.41
2022-12-19T18:58:20.034Z,77.61
2022-12-19T19:01:43.749Z,77.47
2022-12-19T19:05:43.555Z,77.39
2022-12-19T19:09:43.552Z,77.31
2022-12-19T19:18:25.647Z,77.30
2022-12-19T19:22:25.698Z,77.34
2022-12-19T19:26:25.245Z,77.54
2022-12-19T19:30:24.500Z,77.64
2022-12-19T19:34:27.419Z,77.90
2022-12-19T19:38:27.051Z,77.95
2022-12-19T19:42:44.929Z,77.99
2022-12-19T19:46:04.254Z,78.11
2022-12-19T19:50:18.013Z,78.14
2022-12-19T19:54:17.890Z,78.24
2022-12-19T19:58:17.271Z,78.41
2022-12-19T20:02:17.307Z,78.49
2022-12-19T20:06:16.796Z,78.63
2022-12-19T20:10:16.479Z,78.78
2022-12-19T20:14:16.249Z,78.89
2022-12-19T20:18:16.018Z,79.15
2022-12-19T20:22:16.155Z,79.44
2022-12-19T20:26:17.163Z,79.77
2022-12-19T20:30:18.203Z,79.99
2022-12-19T20:34:31.583Z,80.13
2022-12-19T20:38:31.518Z,80.44
2022-12-19T20:42:31.103Z,80.71
2022-12-19T20:46:30.786Z,80.94
2022-12-19T20:50:30.540Z,81.14
2022-12-19T20:54:29.997Z,81.49
2022-12-19T20:58:43.335Z,81.77
2022-12-19T21:03:27.063Z,81.98
2022-12-19T21:06:20.821Z,82.19
2022-12-19T21:10:21.006Z,82.32
2022-12-19T21:14:34.275Z,82.47
2022-12-19T21:18:34.938Z,82.64
2022-12-19T21:22:34.274Z,82.80
2022-12-19T21:26:34.300Z,82.95
2022-12-19T21:30:33.684Z,83.03
2022-12-19T21:34:33.053Z,83.09
2022-12-19T21:38:32.508Z,83.26
2022-12-19T21:42:31.581Z,83.39
2022-12-19T21:46:33.409Z,83.50
2022-12-19T21:50:34.019Z,83.68
2022-12-19T21:54:33.072Z,83.79
2022-12-19T21:58:32.622Z,83.86
2022-12-19T22:02:34.123Z,83.84
2022-12-19T22:06:15.091Z,83.90
2022-12-19T22:10:14.426Z,83.68
2022-12-19T22:14:27.555Z,83.05
2022-12-19T22:18:27.047Z,83.31
2022-12-19T22:22:26.321Z,83.53
2022-12-19T22:26:25.561Z,83.73
2022-12-19T22:30:24.870Z,83.94
2022-12-19T22:34:24.435Z,84.10
2022-12-19T22:38:23.519Z,84.14
2022-12-19T22:42:23.393Z,84.24
2022-12-19T22:46:30.158Z,84.32
2022-12-19T22:50:29.682Z,84.35
2022-12-19T22:54:29.580Z,84.40
2022-12-19T22:58:29.727Z,84.42
2022-12-19T23:02:29.413Z,84.44
2022-12-19T23:06:31.357Z,84.51
2022-12-19T23:10:30.805Z,84.52
2022-12-19T23:14:30.533Z,84.54
2022-12-19T23:18:44.559Z,84.58
2022-12-19T23:22:44.039Z,84.62
2022-12-19T23:26:44.692Z,84.63
2022-12-19T23:30:43.639Z,84.61
2022-12-19T23:34:43.009Z,84.63
2022-12-19T23:38:43.816Z,84.64
2022-12-19T23:42:43.036Z,84.64
2022-12-19T23:46:42.592Z,84.66
2022-12-19T23:50:41.627Z,84.70
2022-12-19T23:54:40.921Z,84.67
2022-12-19T23:58:40.911Z,84.74
